Impacts METAR Board
IDs:

KIAD - Washington/Dulles In, VA, US

Updated at: 2100 UTC 15 Jun 2019
Potential Impact None Slight Moderate High
Time 15/09Z 15/10Z 15/11Z 15/12Z 15/13Z 15/14Z 15/15Z 15/16Z 15/17Z 15/18Z 15/19Z 15/20Z 15/21Z
Temp55 52 57 59 62 63 69 73 77 79 82 80 81
Dewpt50 49 52 53 52 53 55 56 55 55 55 54 54
Altim30.12 30.12 30.14 30.16 30.16 30.16 30.15 30.13 30.10 30.07 30.04 30.04 30.02
VIS10 10 10 10 10 10 10 10 10 10 10 10 10
CIG-- -- 250 250 180 140 140 120 120 150 150 130 150
CoverSCTSCTBKNBKNBKNBKNBKNBKNBKNBKNBKNBKNBKN
FltCatVFRVFRVFRVFRVFRVFRVFRVFRVFRVFRVFRVFRVFR
WX--------------------------
WDir0150190200190190200210190200210180190
WSpd0 3 5 3 6 5 8 8 12 10 14 13 12
WGst-- -- -- -- -- -- -- -- -- -- -- 19 --
Raw hourly METARs
KIAD 150852Z 00000KT 10SM SCT250 13/10 A3012 RMK AO2 SLP197 T01280100 55006 $
KIAD 150952Z 15003KT 10SM FEW150 SCT250 11/09 A3012 RMK AO2 SLP198 T01110094 $
KIAD 151052Z 19005KT 10SM FEW150 BKN250 14/11 A3014 RMK AO2 SLP206 T01390111 $
KIAD 151152Z 20003KT 10SM SCT150 BKN250 15/12 A3016 RMK AO2 SLP210 7//// T01500117 10156 20100 53013 $
KIAD 151252Z 19006KT 10SM BKN180 BKN250 17/11 A3016 RMK AO2 SLP212 T01670111 $
KIAD 151352Z 19005KT 10SM SCT100 BKN140 BKN250 17/12 A3016 RMK AO2 SLP212 VIRGA T01720117 $
KIAD 151452Z 20008KT 10SM BKN140 BKN190 BKN250 21/13 A3015 RMK AO2 SLP207 VIRGA T02060128 58003 $
KIAD 151552Z 21008KT 10SM BKN120 BKN160 BKN250 23/13 A3013 RMK AO2 SLP201 T02280133 $
KIAD 151652Z 19012KT 10SM BKN120 BKN250 25/13 A3010 RMK AO2 SLP191 T02500128 $
KIAD 151752Z 20010KT 10SM SCT120 BKN150 BKN250 26/13 A3007 RMK AO2 SLP181 T02610128 10261 20156 58025 $
KIAD 151852Z 21014KT 10SM FEW120 BKN150 28/13 A3004 RMK AO2 SLP172 T02780128 $
KIAD 151952Z 18013G19KT 10SM BKN130 27/12 A3004 RMK AO2 SLP169 T02670122 $
KIAD 152052Z 19012KT 10SM BKN150 BKN250 27/12 A3002 RMK AO2 SLP164 T02720122 56017 $



Page loaded:  21:20 UTC  |   02:20 PM Pacific  |   03:20 PM Mountain  |   04:20 PM Central  |   05:20 PM Eastern

 

ADVISORIES

FORECASTS

FORECASTS

OBSERVATIONS

USER TOOLS

ABOUT US